Time;durP1;ratioP1;P1;durP2;ratioP2;P2;SDS_P1;SDS_P2;PMS_P1;PMS_P2;Temp;Humidity;BMP_temperature;BMP_pressure;BME280_temperature;BME280_humidity;BME280_pressure;Samples;Min_cycle;Max_cycle;Signal;HPM_P1;HPM_P2
2021/07/06 00:02:22;;;;;;;11.25;9.70;;;;;;;23.00;69.60;99718.78;5042066;28;20467;-77
2021/07/06 00:04:50;;;;;;;13.68;9.88;;;;;;;23.05;68.00;99704.59;5031470;28;20029;-75
2021/07/06 00:07:18;;;;;;;19.60;11.05;;;;;;;23.13;68.10;99717.56;5053284;28;20021;-75
2021/07/06 00:09:47;;;;;;;14.80;9.73;;;;;;;23.16;67.04;99703.47;5050136;28;20029;-78
2021/07/06 00:12:13;;;;;;;15.13;9.45;;;;;;;23.21;67.12;99707.69;5053563;28;20040;-82
2021/07/06 00:14:38;;;;;;;11.70;10.13;;;;;;;23.22;66.89;99703.31;5039921;28;20029;-76
2021/07/06 00:17:04;;;;;;;11.05;9.93;;;;;;;23.27;66.63;99711.94;5053947;28;20094;-80
2021/07/06 00:19:30;;;;;;;16.42;10.10;;;;;;;23.03;66.97;99709.03;5033137;28;20490;-89
2021/07/06 00:21:55;;;;;;;10.38;9.38;;;;;;;23.13;66.55;99707.03;5030855;28;20608;-87
2021/07/06 00:24:20;;;;;;;12.27;8.82;;;;;;;23.17;66.29;99699.94;5053130;28;20152;-82
2021/07/06 00:26:46;;;;;;;14.30;9.73;;;;;;;22.80;67.68;99695.63;5047925;28;20028;-79
2021/07/06 00:29:11;;;;;;;10.52;9.30;;;;;;;22.73;67.72;99690.53;5058274;28;20059;-75
2021/07/06 00:31:37;;;;;;;11.10;9.90;;;;;;;22.62;68.43;99703.94;5047729;28;20037;-81
2021/07/06 00:34:02;;;;;;;15.05;10.65;;;;;;;22.52;68.36;99670.88;5031687;28;20033;-83
2021/07/06 00:36:28;;;;;;;10.70;9.60;;;;;;;22.52;69.64;99706.81;5039499;28;20471;-83
2021/07/06 00:38:53;;;;;;;12.05;10.25;;;;;;;22.50;69.57;99704.25;5035694;28;20388;-84
2021/07/06 00:41:40;;;;;;;11.20;9.77;;;;;;;22.48;69.52;99711.31;5010886;28;20041;-80
2021/07/06 00:44:12;;;;;;;11.68;10.10;;;;;;;22.53;69.35;99709.44;5009952;28;20045;-88
2021/07/06 00:46:37;;;;;;;14.23;10.93;;;;;;;22.51;69.40;99721.75;4990574;28;20104;-78
2021/07/06 00:49:03;;;;;;;12.30;11.02;;;;;;;22.21;70.37;99718.91;4994369;28;21522;-77
2021/07/06 00:51:28;;;;;;;12.30;11.02;;;;;;;22.35;70.28;99717.75;4991790;28;20038;-83
2021/07/06 00:53:54;;;;;;;12.57;10.55;;;;;;;22.43;70.02;99715.81;4975318;28;20461;-86
2021/07/06 00:56:19;;;;;;;12.43;10.40;;;;;;;22.21;70.60;99724.19;4979417;28;20038;-78
2021/07/06 00:58:48;;;;;;;13.02;10.88;;;;;;;22.28;70.42;99717.00;4978802;28;20026;-89
2021/07/06 01:01:13;;;;;;;13.60;10.38;;;;;;;22.17;70.12;99696.25;5004000;28;20049;-77
2021/07/06 01:03:39;;;;;;;12.43;10.57;;;;;;;22.12;71.15;99711.25;5013012;28;20068;-82
2021/07/06 01:06:05;;;;;;;12.60;10.27;;;;;;;22.19;70.76;99714.59;4995088;28;20052;-80
2021/07/06 01:08:30;;;;;;;10.70;9.70;;;;;;;22.18;70.42;99702.34;4991272;28;20054;-80
2021/07/06 01:10:57;;;;;;;10.93;9.82;;;;;;;21.95;71.17;99709.00;4994039;28;20506;-77
2021/07/06 01:13:23;;;;;;;12.48;10.43;;;;;;;21.83;72.08;99706.63;5006150;28;20040;-80
2021/07/06 01:15:48;;;;;;;11.40;10.20;;;;;;;21.90;71.71;99705.63;5011989;28;20113;-74
2021/07/06 01:18:15;;;;;;;11.80;9.55;;;;;;;21.87;71.31;99705.66;4997197;28;20057;-82
2021/07/06 01:20:59;;;;;;;12.35;10.75;;;;;;;21.81;72.00;99706.69;4995164;28;20030;-83
2021/07/06 01:23:28;;;;;;;10.52;9.50;;;;;;;21.76;72.11;99716.44;4995491;28;20026;-77
2021/07/06 01:25:56;;;;;;;11.20;10.10;;;;;;;21.42;73.16;99714.44;5010473;28;20037;-78
2021/07/06 01:28:22;;;;;;;11.27;10.00;;;;;;;21.13;73.86;99679.13;4994342;28;20401;-77
2021/07/06 01:30:48;;;;;;;12.25;10.55;;;;;;;21.26;73.16;99683.25;5009241;28;20042;-73
2021/07/06 01:33:23;;;;;;;11.88;10.70;;;;;;;21.42;73.34;99722.31;5011158;28;20385;-73
2021/07/06 01:35:53;;;;;;;12.30;11.10;;;;;;;21.21;74.26;99732.34;4993549;28;20025;-70
2021/07/06 01:38:19;;;;;;;11.20;10.10;;;;;;;21.17;73.97;99721.03;5009299;28;20073;-74
2021/07/06 01:40:45;;;;;;;11.65;10.45;;;;;;;20.75;76.20;99730.53;5010451;28;20030;-79
2021/07/06 01:43:10;;;;;;;11.52;10.40;;;;;;;20.73;76.29;99729.72;5015436;28;20037;-81
2021/07/06 01:45:36;;;;;;;12.73;10.60;;;;;;;20.82;75.12;99719.94;5014423;28;20458;-78
2021/07/06 01:48:04;;;;;;;12.73;10.90;;;;;;;20.62;75.83;99725.47;5029370;28;20133;-71
2021/07/06 01:50:35;;;;;;;11.48;10.27;;;;;;;20.70;75.57;99730.59;5018827;28;20582;-75
2021/07/06 01:53:05;;;;;;;12.25;11.05;;;;;;;20.71;75.54;99734.97;5031645;28;20037;-73
2021/07/06 01:55:34;;;;;;;11.68;10.07;;;;;;;20.68;75.71;99732.38;5031550;28;20056;-76
2021/07/06 01:58:01;;;;;;;12.18;10.88;;;;;;;20.61;75.67;99734.22;5014855;28;20148;-72
2021/07/06 02:00:29;;;;;;;12.57;11.27;;;;;;;20.56;76.12;99733.44;5029570;28;20057;-74
2021/07/06 02:02:59;;;;;;;12.52;10.85;;;;;;;20.48;76.20;99727.44;5030569;28;20053;-73
2021/07/06 02:05:28;;;;;;;13.52;9.63;;;;;;;20.52;75.61;99737.88;5030369;28;20071;-72
2021/07/06 02:07:54;;;;;;;15.07;10.43;;;;;;;20.37;76.51;99738.09;5033945;28;20060;-75
2021/07/06 02:10:23;;;;;;;12.48;11.18;;;;;;;20.58;75.78;99750.00;5047483;28;20153;-75
2021/07/06 02:12:49;;;;;;;12.35;9.55;;;;;;;20.63;75.48;99755.19;5042650;28;20129;-75
2021/07/06 02:15:16;;;;;;;13.43;9.68;;;;;;;20.42;76.59;99751.13;5042491;28;20120;-73
2021/07/06 02:17:43;;;;;;;11.60;9.57;;;;;;;20.45;75.28;99724.84;5050611;28;20029;-75
2021/07/06 02:20:11;;;;;;;12.32;10.05;;;;;;;20.71;74.68;99740.22;5054521;28;20029;-77
2021/07/06 02:22:38;;;;;;;10.68;9.57;;;;;;;20.58;75.34;99751.78;5049231;28;20040;-76
2021/07/06 02:25:05;;;;;;;12.05;10.57;;;;;;;20.49;75.81;99758.03;5043244;28;20039;-75
2021/07/06 02:27:30;;;;;;;13.63;10.93;;;;;;;20.50;75.79;99768.47;5032089;28;20103;-73
2021/07/06 02:29:56;;;;;;;15.60;10.70;;;;;;;20.35;75.41;99701.41;5042096;28;20024;-71
2021/07/06 02:32:21;;;;;;;11.23;9.32;;;;;;;20.65;74.75;99748.16;5067704;28;20020;-71
2021/07/06 02:34:47;;;;;;;12.15;9.35;;;;;;;20.74;74.23;99755.06;5063777;28;20401;-75
2021/07/06 02:37:12;;;;;;;11.48;10.27;;;;;;;20.83;74.06;99757.50;5063462;28;20446;-72
2021/07/06 02:39:38;;;;;;;10.50;9.38;;;;;;;20.88;73.92;99753.03;5037108;28;20060;-71
2021/07/06 02:42:03;;;;;;;14.60;10.40;;;;;;;20.98;73.48;99759.00;5043547;28;20029;-75
2021/07/06 02:44:29;;;;;;;10.43;9.23;;;;;;;20.76;74.00;99763.75;5032971;28;20060;-72
2021/07/06 02:46:54;;;;;;;10.18;9.15;;;;;;;20.06;76.68;99753.41;5034265;28;20479;-72
2021/07/06 02:49:20;;;;;;;16.40;10.13;;;;;;;19.93;77.97;99778.91;5046538;28;20032;-78
2021/07/06 02:51:45;;;;;;;15.93;10.48;;;;;;;19.80;78.49;99760.69;5069556;28;20032;-73
2021/07/06 02:54:11;;;;;;;11.57;9.95;;;;;;;19.87;78.70;99767.59;5067564;28;20101;-74
2021/07/06 02:56:37;;;;;;;16.63;10.88;;;;;;;20.10;78.02;99776.94;5068838;28;20036;-73
2021/07/06 02:59:03;;;;;;;12.48;10.35;;;;;;;20.46;76.51;99771.16;5050491;28;20032;-72
2021/07/06 03:01:28;;;;;;;16.77;9.88;;;;;;;20.28;77.21;99769.69;5057631;28;20056;-73
2021/07/06 03:03:54;;;;;;;15.88;10.73;;;;;;;20.18;78.06;99774.19;5091267;28;20032;-76
2021/07/06 03:06:19;;;;;;;11.57;10.38;;;;;;;20.38;77.44;99781.78;5072806;28;20023;-74
2021/07/06 03:08:44;;;;;;;10.77;9.68;;;;;;;20.56;76.58;99771.91;5071378;28;20633;-76
2021/07/06 03:11:13;;;;;;;13.38;9.77;;;;;;;20.58;76.17;99768.34;5070839;28;20430;-74
2021/07/06 03:13:39;;;;;;;19.23;11.53;;;;;;;20.87;75.27;99800.31;5053263;28;20033;-75
2021/07/06 03:16:05;;;;;;;13.68;11.38;;;;;;;21.03;74.73;99796.53;5069879;28;20254;-75
2021/07/06 03:18:30;;;;;;;13.98;10.65;;;;;;;21.15;74.15;99796.31;5070983;28;20094;-75
2021/07/06 03:20:56;;;;;;;13.07;10.95;;;;;;;21.28;73.60;99807.50;5053732;28;20119;-76
2021/07/06 03:23:21;;;;;;;13.30;11.90;;;;;;;21.19;74.47;99810.25;5070974;28;20024;-75
2021/07/06 03:25:47;;;;;;;12.40;11.15;;;;;;;21.29;73.43;99808.34;5069659;28;20021;-75
2021/07/06 03:28:13;;;;;;;16.15;11.15;;;;;;;21.29;73.09;99805.72;5070495;28;20098;-75
2021/07/06 03:30:39;;;;;;;13.43;11.13;;;;;;;21.06;72.88;99751.88;5071009;28;20029;-77
2021/07/06 03:33:08;;;;;;;11.35;9.88;;;;;;;21.44;72.38;99804.56;5071267;28;20021;-76
2021/07/06 03:35:35;;;;;;;12.43;10.88;;;;;;;21.42;71.93;99786.22;5070722;28;20024;-75
2021/07/06 03:38:01;;;;;;;12.88;10.73;;;;;;;21.54;71.49;99800.00;5070686;28;20043;-77
2021/07/06 03:40:27;;;;;;;13.75;9.98;;;;;;;21.32;71.52;99764.53;5052897;28;20028;-76
2021/07/06 03:42:53;;;;;;;12.77;9.70;;;;;;;21.59;71.76;99806.06;5071034;28;20077;-74
2021/07/06 03:45:20;;;;;;;13.52;10.10;;;;;;;21.01;73.67;99786.06;5070762;28;20028;-75
2021/07/06 03:47:48;;;;;;;11.85;10.00;;;;;;;20.50;76.20;99817.44;5070770;28;20035;-75
2021/07/06 03:50:19;;;;;;;11.18;10.13;;;;;;;20.14;78.36;99815.28;5070540;28;20025;-75
2021/07/06 03:52:47;;;;;;;14.60;10.60;;;;;;;19.98;79.30;99803.28;5070424;28;20025;-74
2021/07/06 03:55:13;;;;;;;12.82;11.38;;;;;;;19.81;80.60;99809.56;5054283;28;20058;-77
2021/07/06 03:57:40;;;;;;;17.30;11.35;;;;;;;19.75;81.50;99822.72;5074182;28;20029;-76
2021/07/06 04:00:09;;;;;;;12.63;11.32;;;;;;;19.92;81.28;99822.56;5074202;28;20032;-74
2021/07/06 04:02:36;;;;;;;16.38;11.05;;;;;;;19.78;82.22;99820.06;5043728;28;20125;-73
2021/07/06 04:05:02;;;;;;;13.85;11.45;;;;;;;20.01;81.66;99827.69;5054014;28;20527;-76
2021/07/06 04:07:28;;;;;;;11.73;10.43;;;;;;;20.15;80.98;99824.00;5054036;28;20032;-75
2021/07/06 04:09:54;;;;;;;11.30;10.10;;;;;;;20.36;80.00;99829.00;5054392;28;20494;-76
2021/07/06 04:12:20;;;;;;;17.77;10.30;;;;;;;20.10;81.39;99826.72;5033602;28;20525;-75
2021/07/06 04:14:46;;;;;;;13.43;10.48;;;;;;;20.18;81.20;99819.59;5033924;28;20412;-75
2021/07/06 04:17:12;;;;;;;14.68;11.15;;;;;;;20.31;81.27;99817.69;5033889;28;20036;-75
2021/07/06 04:19:39;;;;;;;16.40;10.63;;;;;;;20.35;80.87;99821.16;5033695;28;20509;-74
2021/07/06 04:22:06;;;;;;;12.65;10.80;;;;;;;20.34;81.15;99827.28;5016054;28;20120;-75
2021/07/06 04:24:32;;;;;;;12.88;11.27;;;;;;;20.28;80.61;99827.34;5039084;28;20033;-75
2021/07/06 04:26:58;;;;;;;13.13;10.80;;;;;;;20.04;81.32;99817.16;5050739;28;20381;-75
2021/07/06 04:29:24;;;;;;;15.52;11.15;;;;;;;19.83;83.48;99835.78;5053636;28;20111;-72
2021/07/06 04:31:50;;;;;;;16.02;10.52;;;;;;;20.13;82.52;99831.03;5053748;28;20108;-76
2021/07/06 04:34:16;;;;;;;18.15;11.88;;;;;;;20.24;81.83;99837.00;5053508;28;20111;-74
2021/07/06 04:36:42;;;;;;;15.77;11.13;;;;;;;20.56;80.88;99837.47;5053686;28;20112;-74
2021/07/06 04:39:08;;;;;;;24.42;11.10;;;;;;;20.76;79.86;99826.69;5052225;28;20029;-72
2021/07/06 04:41:34;;;;;;;15.52;11.85;;;;;;;21.12;78.16;99841.00;5053680;28;20035;-77
2021/07/06 04:43:59;;;;;;;12.35;10.68;;;;;;;21.33;77.68;99852.00;5053349;28;20061;-75
2021/07/06 04:46:25;;;;;;;16.25;11.38;;;;;;;21.36;78.05;99841.47;5053226;28;20032;-71
2021/07/06 04:48:51;;;;;;;15.75;12.35;;;;;;;21.48;77.39;99843.88;5053106;28;20057;-75
2021/07/06 04:51:16;;;;;;;14.30;12.77;;;;;;;21.56;76.57;99837.63;5053092;28;20025;-75
2021/07/06 04:53:42;;;;;;;21.35;13.43;;;;;;;21.70;76.51;99859.28;5035431;28;20108;-77
2021/07/06 04:56:08;;;;;;;15.68;13.10;;;;;;;21.86;76.16;99856.34;5052984;28;20036;-74
2021/07/06 04:58:35;;;;;;;21.50;13.98;;;;;;;22.07;75.46;99862.94;5053098;28;20029;-77
2021/07/06 05:01:01;;;;;;;18.70;12.73;;;;;;;22.14;75.19;99854.03;5038532;28;20132;-70
2021/07/06 05:03:28;;;;;;;17.58;11.90;;;;;;;22.13;75.13;99858.44;5070191;28;20120;-71
2021/07/06 05:05:54;;;;;;;15.07;11.27;;;;;;;22.10;74.76;99844.47;5054019;28;20071;-78
2021/07/06 05:08:20;;;;;;;12.00;10.60;;;;;;;22.04;75.30;99860.38;5038361;28;20041;-73
2021/07/06 05:10:46;;;;;;;11.77;10.30;;;;;;;21.99;75.50;99852.56;5053204;28;20021;-73
2021/07/06 05:13:11;;;;;;;13.45;10.93;;;;;;;21.98;75.74;99864.88;5055679;28;20043;-69
2021/07/06 05:15:37;;;;;;;14.60;10.85;;;;;;;22.06;75.46;99869.97;5053678;28;20025;-75
2021/07/06 05:18:02;;;;;;;16.50;10.95;;;;;;;22.21;74.57;99855.63;5053373;28;20082;-72
2021/07/06 05:20:28;;;;;;;15.10;10.13;;;;;;;22.25;74.48;99866.97;5057314;28;20483;-72
2021/07/06 05:22:54;;;;;;;11.45;10.25;;;;;;;22.16;74.35;99852.25;5056051;28;20025;-71
2021/07/06 05:25:19;;;;;;;14.20;11.25;;;;;;;22.34;74.89;99871.16;5059269;28;20028;-71
2021/07/06 05:27:45;;;;;;;14.65;11.32;;;;;;;22.40;74.71;99879.81;5054629;28;20056;-71
2021/07/06 05:30:11;;;;;;;14.00;11.80;;;;;;;22.27;75.50;99875.69;5056338;28;20040;-70
2021/07/06 05:32:38;;;;;;;15.10;11.20;;;;;;;22.22;76.43;99888.03;5053297;28;20020;-73
2021/07/06 05:35:05;;;;;;;13.35;10.70;;;;;;;22.35;75.60;99883.41;5072078;28;20055;-73
2021/07/06 05:37:31;;;;;;;13.30;10.80;;;;;;;22.43;75.03;99887.66;5070996;28;20044;-72
2021/07/06 05:39:56;;;;;;;14.32;11.45;;;;;;;22.29;74.56;99858.09;5050287;28;20509;-71
2021/07/06 05:42:22;;;;;;;13.45;12.02;;;;;;;22.30;75.50;99900.13;5049522;28;20072;-71
2021/07/06 05:44:47;;;;;;;14.15;11.60;;;;;;;22.25;76.39;99893.25;5055017;28;20117;-74
2021/07/06 05:47:14;;;;;;;13.93;12.52;;;;;;;22.24;76.19;99902.91;5032296;28;20025;-71
2021/07/06 05:49:40;;;;;;;13.75;11.95;;;;;;;22.31;76.81;99908.91;5057189;28;20048;-71
2021/07/06 05:52:05;;;;;;;13.95;12.30;;;;;;;22.23;76.26;99902.91;5089695;28;20039;-72
2021/07/06 05:54:31;;;;;;;13.57;12.05;;;;;;;22.24;76.38;99912.56;5089270;28;20556;-73
2021/07/06 05:56:56;;;;;;;13.55;12.20;;;;;;;22.13;76.24;99900.50;5089620;28;20067;-73
2021/07/06 05:59:22;;;;;;;13.27;11.95;;;;;;;22.22;76.29;99915.22;5072647;28;20182;-76
2021/07/06 06:01:48;;;;;;;15.98;11.93;;;;;;;22.33;76.03;99914.13;5089357;28;20128;-73
2021/07/06 06:04:15;;;;;;;14.30;12.80;;;;;;;22.35;75.77;99914.97;5089340;28;20583;-74
2021/07/06 06:06:40;;;;;;;15.60;11.88;;;;;;;22.46;75.56;99903.34;5058936;28;20063;-72
2021/07/06 06:09:07;;;;;;;16.88;12.55;;;;;;;22.58;74.71;99886.44;5049374;28;20029;-76
2021/07/06 06:11:32;;;;;;;14.18;12.10;;;;;;;22.93;73.30;99907.59;5049220;28;20143;-72
2021/07/06 06:13:57;;;;;;;14.10;12.35;;;;;;;23.08;73.41;99912.50;5049126;28;20071;-72
2021/07/06 06:16:23;;;;;;;17.40;12.63;;;;;;;22.98;72.75;99865.38;5049318;28;20025;-75
2021/07/06 06:18:54;;;;;;;16.13;11.93;;;;;;;23.37;71.93;99908.31;5051194;28;20557;-73
2021/07/06 06:21:25;;;;;;;18.20;12.55;;;;;;;23.55;73.32;99900.84;5050296;28;20110;-72
2021/07/06 06:23:51;;;;;;;16.23;11.98;;;;;;;23.51;71.06;99888.66;5051743;28;20025;-73
2021/07/06 06:26:16;;;;;;;15.18;11.20;;;;;;;23.47;70.76;99860.69;5051388;28;20082;-72
2021/07/06 06:28:42;;;;;;;20.75;12.70;;;;;;;23.83;70.83;99894.88;5051359;28;20029;-74
2021/07/06 06:31:08;;;;;;;15.77;13.18;;;;;;;23.82;71.57;99898.41;5049855;28;20436;-73
2021/07/06 06:33:33;;;;;;;14.05;12.20;;;;;;;23.84;70.10;99893.94;5051486;28;20071;-73
2021/07/06 06:35:59;;;;;;;14.82;11.23;;;;;;;23.94;69.35;99908.66;5051321;28;20024;-72
2021/07/06 06:38:25;;;;;;;13.13;11.80;;;;;;;23.99;71.43;99916.41;5051463;28;20068;-72
2021/07/06 06:40:51;;;;;;;15.23;11.98;;;;;;;24.04;69.57;99901.34;5049921;28;20087;-77
2021/07/06 06:43:17;;;;;;;17.23;11.07;;;;;;;24.18;68.32;99900.97;5051121;28;20025;-74
2021/07/06 06:45:42;;;;;;;16.38;11.45;;;;;;;24.32;69.74;99905.84;5050959;28;20537;-73
2021/07/06 06:48:09;;;;;;;13.65;11.77;;;;;;;24.33;69.43;99900.50;5051614;28;20033;-73
2021/07/06 06:50:34;;;;;;;11.57;10.32;;;;;;;24.37;68.34;99896.88;5051158;28;20502;-73
2021/07/06 06:53:00;;;;;;;11.25;10.20;;;;;;;24.40;67.60;99903.84;5050979;28;20029;-72
2021/07/06 06:55:25;;;;;;;12.70;9.50;;;;;;;24.18;67.99;99882.50;5050973;28;20063;-72
2021/07/06 06:57:51;;;;;;;12.43;9.40;;;;;;;24.33;65.56;99910.22;5051075;28;20461;-73
2021/07/06 07:00:16;;;;;;;10.73;9.25;;;;;;;24.39;66.72;99907.38;5050800;28;20454;-72
2021/07/06 07:02:44;;;;;;;10.43;8.52;;;;;;;24.53;65.53;99913.09;5077793;28;20040;-72
2021/07/06 07:05:12;;;;;;;10.18;9.20;;;;;;;24.43;64.99;99897.63;5091281;28;20020;-71
2021/07/06 07:07:37;;;;;;;10.10;8.88;;;;;;;24.36;64.25;99871.41;5091553;28;20028;-74
2021/07/06 07:10:05;;;;;;;13.35;8.48;;;;;;;24.53;62.73;99893.78;5091096;28;20020;-73
2021/07/06 07:12:30;;;;;;;10.45;8.65;;;;;;;24.55;64.68;99898.09;5072519;28;20071;-73
2021/07/06 07:14:57;;;;;;;11.52;8.40;;;;;;;24.65;63.72;99904.00;5091094;28;20063;-74
2021/07/06 07:17:23;;;;;;;10.45;8.95;;;;;;;24.74;63.36;99902.00;5091418;28;20028;-75
2021/07/06 07:19:49;;;;;;;11.20;7.88;;;;;;;24.75;63.19;99896.66;5091134;28;20032;-71
2021/07/06 07:22:15;;;;;;;8.82;8.02;;;;;;;24.79;62.73;99895.66;5091086;28;20028;-73
2021/07/06 07:24:40;;;;;;;13.55;8.40;;;;;;;24.64;63.14;99857.38;5090900;28;20103;-73
2021/07/06 07:27:07;;;;;;;9.73;8.10;;;;;;;25.06;62.89;99894.81;5090940;28;20107;-76
2021/07/06 07:29:33;;;;;;;11.13;8.13;;;;;;;25.13;61.10;99896.34;5091671;28;20035;-72
2021/07/06 07:31:59;;;;;;;9.40;7.53;;;;;;;25.11;62.03;99884.97;5095022;28;20028;-75
2021/07/06 07:34:25;;;;;;;9.57;7.40;;;;;;;25.20;60.51;99885.53;5094913;28;20099;-72
2021/07/06 07:36:51;;;;;;;9.38;7.38;;;;;;;25.35;59.26;99897.38;5094613;28;20142;-72
2021/07/06 07:39:16;;;;;;;9.35;7.00;;;;;;;25.49;59.26;99901.38;5094790;28;20086;-74
2021/07/06 07:41:42;;;;;;;8.77;6.57;;;;;;;25.61;58.80;99893.00;5094576;28;20463;-73
2021/07/06 07:44:08;;;;;;;11.68;6.35;;;;;;;25.49;57.36;99861.72;5076275;28;20085;-72
2021/07/06 07:46:33;;;;;;;7.68;6.47;;;;;;;25.96;58.43;99890.91;5094662;28;20028;-72
2021/07/06 07:48:59;;;;;;;8.63;6.70;;;;;;;26.29;59.83;99898.56;5076431;28;20073;-71
2021/07/06 07:51:25;;;;;;;9.63;6.45;;;;;;;26.53;57.47;99893.25;5094535;28;20032;-72
2021/07/06 07:53:50;;;;;;;7.80;6.53;;;;;;;26.61;58.29;99888.50;5085283;28;20021;-75
2021/07/06 07:56:16;;;;;;;7.32;5.55;;;;;;;26.76;54.63;99891.50;5083575;28;20131;-75
2021/07/06 07:58:41;;;;;;;7.68;4.90;;;;;;;26.92;53.51;99899.72;5079134;28;20077;-71
2021/07/06 08:01:07;;;;;;;7.80;4.38;;;;;;;27.08;50.46;99890.22;5083914;28;20494;-71
2021/07/06 08:03:32;;;;;;;10.60;4.90;;;;;;;27.24;51.21;99893.09;5065146;28;20020;-71
2021/07/06 08:06:02;;;;;;;5.72;4.13;;;;;;;27.35;50.95;99895.28;5085068;28;20086;-73
2021/07/06 08:08:27;;;;;;;7.10;3.75;;;;;;;27.25;47.54;99865.69;5084194;28;20028;-72
2021/07/06 08:10:54;;;;;;;8.85;4.07;;;;;;;27.19;46.61;99868.59;5079979;28;20085;-73
2021/07/06 08:13:24;;;;;;;8.05;3.85;;;;;;;27.55;48.43;99902.44;5080783;28;20016;-71
2021/07/06 08:15:51;;;;;;;8.48;4.32;;;;;;;27.73;48.18;99903.44;5083716;28;20048;-74
2021/07/06 08:18:17;;;;;;;7.40;4.28;;;;;;;27.83;47.66;99898.59;5079161;28;20615;-71
2021/07/06 08:20:44;;;;;;;6.40;3.95;;;;;;;27.68;48.76;99910.72;5075572;28;20024;-75
2021/07/06 08:23:09;;;;;;;8.55;4.13;;;;;;;27.34;47.34;99867.06;5082369;28;20040;-74
2021/07/06 08:25:35;;;;;;;5.57;4.00;;;;;;;27.82;49.79;99906.63;5084039;28;20020;-74
2021/07/06 08:28:00;;;;;;;8.40;4.68;;;;;;;27.92;50.63;99902.63;5065479;28;20153;-74
2021/07/06 08:30:26;;;;;;;10.27;4.40;;;;;;;28.11;47.85;99900.03;5064374;28;20596;-74
2021/07/06 08:32:51;;;;;;;7.60;4.00;;;;;;;28.27;46.29;99891.38;5084503;28;20035;-78
2021/07/06 08:35:17;;;;;;;12.48;3.47;;;;;;;28.03;47.24;99867.66;5082953;28;20093;-75
2021/07/06 08:37:43;;;;;;;8.32;4.03;;;;;;;28.31;46.50;99892.94;5082973;28;20016;-74
2021/07/06 08:40:10;;;;;;;10.15;3.78;;;;;;;28.43;45.93;99895.03;5065775;28;20024;-75
2021/07/06 08:42:39;;;;;;;7.97;3.88;;;;;;;28.62;46.49;99891.53;5079767;28;20033;-79
2021/07/06 08:45:05;;;;;;;;;;;;;;;28.76;46.70;99896.19;5082774;28;20024;-75
2021/07/06 08:47:33;;;;;;;16.33;11.35;;;;;;;28.65;45.49;99896.69;5081299;28;19919;-75
2021/07/06 08:50:02;;;;;;;6.85;4.22;;;;;;;28.56;46.66;99890.00;5065427;28;20525;-75
2021/07/06 08:52:28;;;;;;;;;;;;;;;28.60;47.61;99886.28;5084118;28;20025;-73
2021/07/06 08:54:54;;;;;;;7.22;3.67;;;;;;;28.44;46.49;99875.53;5078773;28;19919;-72
2021/07/06 08:57:21;;;;;;;6.32;4.18;;;;;;;28.65;45.89;99889.59;5065238;28;20415;-71
2021/07/06 08:59:48;;;;;;;4.90;3.90;;;;;;;28.60;45.28;99866.81;5063034;28;20036;-75
2021/07/06 09:02:14;;;;;;;6.43;4.00;;;;;;;28.88;44.65;99888.50;5045213;28;20489;-72
2021/07/06 09:04:47;;;;;;;15.35;3.92;;;;;;;28.99;43.03;99887.97;5052464;28;20027;-74
2021/07/06 09:07:13;;;;;;;7.85;3.47;;;;;;;28.91;43.58;99849.44;5052615;28;20025;-73
2021/07/06 09:09:39;;;;;;;7.28;3.75;;;;;;;29.26;43.36;99892.00;5052400;28;20106;-72
2021/07/06 09:12:07;;;;;;;10.80;4.13;;;;;;;29.40;43.36;99884.22;5052549;28;20456;-71
2021/07/06 09:14:33;;;;;;;7.07;3.45;;;;;;;29.63;44.53;99890.16;5052186;28;20032;-71
2021/07/06 09:17:16;;;;;;;6.55;3.38;;;;;;;29.66;44.98;99900.66;5049318;28;20468;-70
2021/07/06 09:19:44;;;;;;;12.40;3.70;;;;;;;29.59;42.50;99891.25;5039536;28;20048;-77
2021/07/06 09:22:33;;;;;;;5.23;3.70;;;;;;;29.86;43.24;99912.91;5049833;28;20503;-74
2021/07/06 09:25:06;;;;;;;;;;;;;;;29.52;43.02;99907.53;5043179;28;20029;-70
2021/07/06 09:27:34;;;;;;;6.35;3.63;;;;;;;29.25;42.85;99903.56;5049739;28;19920;-70
2021/07/06 09:30:19;;;;;;;25.73;5.30;;;;;;;29.14;42.02;99907.63;5052309;28;20119;-70
2021/07/06 09:32:56;;;;;;;17.52;4.75;;;;;;;29.40;42.68;99910.81;5051577;28;20028;-71
2021/07/06 09:35:27;;;;;;;8.30;3.67;;;;;;;29.25;42.19;99871.66;5042562;28;20538;-74
2021/07/06 09:37:58;;;;;;;58.33;7.10;;;;;;;29.42;42.89;99910.72;5049765;28;20514;-70
2021/07/06 09:40:37;;;;;;;52.75;7.40;;;;;;;29.25;42.77;99911.53;5051642;28;20625;-71
2021/07/06 09:43:15;;;;;;;39.90;6.28;;;;;;;28.95;41.21;99866.94;5050466;28;20111;-71
2021/07/06 09:46:08;;;;;;;13.27;4.05;;;;;;;29.20;41.69;99914.44;5033953;28;20029;-71
2021/07/06 09:48:35;;;;;;;11.15;4.10;;;;;;;29.63;42.11;99911.44;5014918;28;20510;-70
2021/07/06 09:51:20;;;;;;;7.60;3.20;;;;;;;29.92;40.37;99919.72;5020297;28;20034;-73
2021/07/06 09:53:48;;;;;;;21.05;4.07;;;;;;;30.10;38.61;99915.25;5019837;28;20041;-70
2021/07/06 09:56:18;;;;;;;18.73;4.28;;;;;;;30.13;39.83;99923.03;5019212;28;20029;-71
2021/07/06 09:58:51;;;;;;;15.25;3.80;;;;;;;30.36;40.51;99924.47;5018188;28;20041;-71
2021/07/06 10:01:16;;;;;;;4.38;3.10;;;;;;;30.38;40.82;99922.59;5021012;28;20037;-70
2021/07/06 10:03:43;;;;;;;15.82;3.70;;;;;;;30.39;39.94;99926.13;5029108;28;20060;-70
2021/07/06 10:06:10;;;;;;;12.18;3.70;;;;;;;30.39;40.22;99924.28;5023568;28;20052;-74
2021/07/06 10:08:36;;;;;;;12.95;3.65;;;;;;;30.65;40.26;99925.56;5023936;28;20026;-73
2021/07/06 10:11:01;;;;;;;6.18;3.35;;;;;;;30.74;37.51;99932.16;5024747;28;20033;-71
2021/07/06 10:13:27;;;;;;;6.10;3.40;;;;;;;30.78;38.89;99931.06;5029063;28;20040;-72
2021/07/06 10:15:53;;;;;;;20.63;6.22;;;;;;;30.84;40.37;99937.84;5029306;28;20025;-73
2021/07/06 10:18:22;;;;;;;34.58;7.35;;;;;;;30.88;39.68;99934.09;5028881;28;20057;-74
2021/07/06 10:20:47;;;;;;;27.65;5.95;;;;;;;30.74;40.40;99942.81;5026487;28;20536;-73
2021/07/06 10:23:14;;;;;;;19.52;4.30;;;;;;;30.16;39.76;99936.22;5012903;28;20034;-71
2021/07/06 10:25:40;;;;;;;15.10;4.22;;;;;;;30.00;40.69;99909.53;5043004;28;20500;-70
2021/07/06 10:28:13;;;;;;;22.65;5.05;;;;;;;29.87;40.49;99930.59;5050905;28;20024;-72
2021/07/06 10:30:42;;;;;;;18.90;4.43;;;;;;;29.74;40.59;99934.81;5049927;28;20404;-69
2021/07/06 10:33:14;;;;;;;13.02;4.03;;;;;;;29.42;40.91;99897.44;5048382;28;20553;-70
2021/07/06 10:35:42;;;;;;;7.05;3.40;;;;;;;29.54;40.84;99932.22;5049819;28;20397;-69
2021/07/06 10:38:30;;;;;;;5.25;3.40;;;;;;;29.45;43.16;99930.06;5048451;28;20024;-73
2021/07/06 10:41:07;;;;;;;7.15;3.55;;;;;;;29.40;41.94;99917.91;5049662;28;20067;-70
2021/07/06 10:43:50;;;;;;;27.10;4.80;;;;;;;29.32;41.23;99907.66;5048919;28;20056;-73
2021/07/06 10:46:21;;;;;;;18.20;3.80;;;;;;;29.56;42.02;99932.19;5049483;28;20028;-70
2021/07/06 10:48:57;;;;;;;12.85;3.75;;;;;;;29.59;42.55;99925.84;5051131;28;20029;-73
2021/07/06 10:51:35;;;;;;;12.50;3.88;;;;;;;29.53;42.35;99921.69;5049728;28;20029;-70
2021/07/06 10:54:08;;;;;;;21.75;4.30;;;;;;;29.51;44.38;99929.75;5050663;28;20037;-70
2021/07/06 10:56:42;;;;;;;10.27;3.55;;;;;;;29.39;41.74;99906.44;5049552;28;20411;-71
2021/07/06 10:59:17;;;;;;;9.77;3.25;;;;;;;29.45;42.57;99916.75;5050927;28;20147;-73
2021/07/06 11:01:45;;;;;;;8.57;3.65;;;;;;;29.46;43.46;99918.47;5058649;28;20044;-70
2021/07/06 11:04:12;;;;;;;5.70;3.70;;;;;;;29.40;43.21;99905.50;5079353;28;20519;-70
2021/07/06 11:06:46;;;;;;;10.90;3.38;;;;;;;29.44;42.69;99920.34;5085614;28;20105;-74
2021/07/06 11:09:18;;;;;;;8.80;3.38;;;;;;;29.41;42.90;99924.97;5067826;28;20460;-70
2021/07/06 11:11:44;;;;;;;9.00;3.78;;;;;;;29.41;43.49;99928.50;5030511;28;20518;-72
2021/07/06 11:14:19;;;;;;;8.30;3.75;;;;;;;29.44;43.83;99917.69;5003024;28;20054;-71
2021/07/06 11:17:00;;;;;;;7.88;3.20;;;;;;;29.52;42.17;99909.31;5032226;28;20045;-72
2021/07/06 11:19:31;;;;;;;6.82;3.60;;;;;;;29.42;42.06;99884.97;5023324;28;20053;-71
2021/07/06 11:22:13;;;;;;;9.07;3.80;;;;;;;29.93;42.26;99906.31;5023395;28;20034;-71
2021/07/06 11:24:40;;;;;;;13.10;4.00;;;;;;;30.15;42.93;99865.28;5030863;28;20030;-72
2021/07/06 11:27:05;;;;;;;13.80;3.72;;;;;;;30.42;41.80;99916.16;5025871;28;20084;-71